Time;durP1;ratioP1;P1;durP2;ratioP2;P2;SDS_P1;SDS_P2;PMS_P1;PMS_P2;Temp;Humidity;BMP_temperature;BMP_pressure;BME280_temperature;BME280_humidity;BME280_pressure;Samples;Min_cycle;Max_cycle;Signal;HPM_P1;HPM_P2
2022/09/08 00:01:46;;;;;;;;;;;;;;;10.31;83.73;99334.94;5087148;28;19912;-61
2022/09/08 00:04:11;;;;;;;;;;;;;;;10.32;83.91;99334.06;5087069;28;19985;-61
2022/09/08 00:06:37;;;;;;;;;;;;;;;10.31;84.27;99340.13;5095092;28;20105;-61
2022/09/08 00:09:04;;;;;;;;;;;;;;;10.29;83.06;99339.28;5102834;28;19908;-61
2022/09/08 00:11:31;;;;;;;;;;;;;;;10.29;83.13;99337.59;5086857;28;19915;-61
2022/09/08 00:14:01;;;;;;;;;;;;;;;10.26;83.75;99340.25;5086744;28;19908;-61
2022/09/08 00:16:27;;;;;;;;;;;;;;;10.32;83.45;99344.41;5070358;28;19975;-61
2022/09/08 00:18:52;;;;;;;;;;;;;;;10.26;84.11;99337.66;5077381;28;19919;-62
2022/09/08 00:21:19;;;;;;;;;;;;;;;10.23;83.79;99339.47;5086585;28;19985;-62
2022/09/08 00:23:45;;;;;;;;;;;;;;;10.25;83.40;99340.28;5086692;28;19991;-61
2022/09/08 00:26:10;;;;;;;;;;;;;;;10.26;83.45;99348.00;5086757;28;20193;-61
2022/09/08 00:28:35;;;;;;;;;;;;;;;10.25;83.76;99345.47;5086601;28;19908;-61
2022/09/08 00:31:01;;;;;;;;;;;;;;;10.25;83.97;99342.88;5086635;28;19916;-61
2022/09/08 00:33:29;;;;;;;;;;;;;;;10.16;84.53;99344.81;5086444;28;19908;-61
2022/09/08 00:35:54;;;;;;;;;;;;;;;10.23;83.60;99349.81;5088604;28;19909;-60
2022/09/08 00:38:21;;;;;;;;;;;;;;;10.20;84.08;99350.75;5106865;28;20021;-61
2022/09/08 00:40:47;;;;;;;;;;;;;;;10.21;83.86;99349.03;5089105;28;19908;-62
2022/09/08 00:43:48;;;;;;;;;;;;;;;10.16;83.51;99355.16;5086473;28;19975;-61
2022/09/08 00:46:25;;;;;;;;;;;;;;;10.27;83.05;99359.22;5064441;28;19970;-62
2022/09/08 00:49:00;;;;;;;;;;;;;;;10.21;83.33;99355.03;5083363;28;19908;-62
2022/09/08 00:51:26;;;;;;;;;;;;;;;10.14;83.68;99359.50;5118994;28;19908;-62
2022/09/08 00:53:54;;;;;;;;;;;;;;;10.16;84.13;99365.50;5086044;28;19919;-62
2022/09/08 00:56:21;;;;;;;;;;;;;;;10.13;83.39;99365.59;5086114;28;19950;-62
2022/09/08 00:58:47;;;;;;;;;;;;;;;10.09;83.84;99363.09;5084431;28;19912;-61
2022/09/08 01:01:12;;;;;;;;;;;;;;;10.08;83.80;99364.00;5086158;28;19912;-62
2022/09/08 01:03:39;;;;;;;;;;;;;;;10.06;83.29;99353.69;5085979;28;20162;-61
2022/09/08 01:06:12;;;;;;;;;;;;;;;10.02;83.45;99359.84;5085870;28;19908;-61
2022/09/08 01:15:00;;;;;;;;;;;;;;;9.97;83.47;99361.66;5086045;28;19915;-62
2022/09/08 01:17:30;;;;;;;;;;;;;;;10.01;83.30;99361.56;5064383;28;20224;-61
2022/09/08 01:19:56;;;;;;;;;;;;;;;10.02;83.72;99362.41;5083743;28;19931;-61
2022/09/08 01:22:40;;;;;;;;;;;;;;;9.98;83.64;99358.19;5099440;28;19908;-61
2022/09/08 01:25:30;;;;;;;;;;;;;;;9.97;83.58;99361.66;5105773;28;19929;-61
2022/09/08 01:28:00;;;;;;;;;;;;;;;10.01;83.66;99361.56;5105710;28;20155;-61
2022/09/08 01:30:25;;;;;;;;;;;;;;;10.04;83.25;99373.56;5105992;28;19908;-61
2022/09/08 01:32:51;;;;;;;;;;;;;;;10.01;83.74;99371.06;5104834;28;19930;-61
2022/09/08 01:35:34;;;;;;;;;;;;;;;9.93;83.67;99372.97;5085473;28;19908;-61
2022/09/08 01:37:59;;;;;;;;;;;;;;;9.99;83.47;99375.41;5104202;28;19955;-61
2022/09/08 01:40:24;;;;;;;;;;;;;;;9.98;83.95;99371.13;5091456;28;19946;-61
2022/09/08 01:42:50;;;;;;;;;;;;;;;10.01;83.93;99381.41;5085190;28;19917;-62
2022/09/08 01:45:16;;;;;;;;;;;;;;;10.00;83.21;99374.53;5084260;28;19969;-61
2022/09/08 01:47:41;;;;;;;;;;;;;;;10.01;83.33;99368.47;5065173;28;19916;-61
2022/09/08 01:50:08;;;;;;;;;;;;;;;10.00;83.50;99375.41;5083731;28;20258;-61
2022/09/08 01:52:34;;;;;;;;;;;;;;;10.01;82.86;99379.66;5085061;28;20209;-60
2022/09/08 01:55:00;;;;;;;;;;;;;;;9.89;83.68;99371.34;5084955;28;19916;-60
2022/09/08 01:57:26;;;;;;;;;;;;;;;9.96;83.29;99378.94;5084666;28;19916;-61
2022/09/08 01:59:51;;;;;;;;;;;;;;;10.01;83.41;99377.06;5085119;28;19913;-61
2022/09/08 02:02:16;;;;;;;;;;;;;;;9.97;83.17;99384.94;5084901;28;19920;-61
2022/09/08 02:04:42;;;;;;;;;;;;;;;9.94;82.40;99385.88;5084993;28;19908;-60
2022/09/08 02:07:08;;;;;;;;;;;;;;;9.98;83.07;99392.66;5084679;28;20209;-61
2022/09/08 02:09:33;;;;;;;;;;;;;;;9.95;83.39;99377.22;5084315;28;20201;-61
2022/09/08 02:11:59;;;;;;;;;;;;;;;9.93;83.58;99384.19;5084514;28;19954;-61
2022/09/08 02:14:24;;;;;;;;;;;;;;;10.01;83.12;99390.00;5084608;28;19908;-61
2022/09/08 02:16:49;;;;;;;;;;;;;;;10.01;83.09;99386.59;5084530;28;19912;-61
2022/09/08 02:19:15;;;;;;;;;;;;;;;9.95;83.53;99394.50;5084215;28;19961;-61
2022/09/08 02:21:40;;;;;;;;;;;;;;;9.91;82.52;99391.13;5083909;28;19908;-60
2022/09/08 02:24:06;;;;;;;;;;;;;;;9.83;83.06;99398.19;5083286;28;19962;-61
2022/09/08 02:26:31;;;;;;;;;;;;;;;9.83;83.85;99399.06;5084470;28;19908;-61
2022/09/08 02:28:57;;;;;;;;;;;;;;;9.82;84.18;99404.28;5102493;28;19915;-60
2022/09/08 02:31:24;;;;;;;;;;;;;;;9.88;84.45;99398.94;5091264;28;19908;-60
2022/09/08 02:33:49;;;;;;;;;;;;;;;9.88;84.79;99400.69;5084318;28;19915;-61
2022/09/08 02:36:15;;;;;;;;;;;;;;;9.90;84.34;99399.75;5084231;28;19908;-61
2022/09/08 02:38:41;;;;;;;;;;;;;;;9.87;83.62;99399.00;5084395;28;19908;-61
2022/09/08 02:41:07;;;;;;;;;;;;;;;9.84;84.14;99410.25;5084076;28;19916;-60
2022/09/08 02:43:33;;;;;;;;;;;;;;;9.82;84.21;99406.88;5084224;28;19983;-61
2022/09/08 02:46:08;;;;;;;;;;;;;;;9.92;83.54;99410.06;5084059;28;19950;-61
2022/09/08 02:48:33;;;;;;;;;;;;;;;9.91;83.60;99413.56;5083878;28;19919;-61
2022/09/08 02:51:00;;;;;;;;;;;;;;;9.87;84.27;99417.09;5083879;28;20125;-61
2022/09/08 02:53:26;;;;;;;;;;;;;;;9.82;83.70;99420.63;5083969;28;20193;-61
2022/09/08 02:55:51;;;;;;;;;;;;;;;9.74;83.65;99414.78;5083853;28;19961;-61
2022/09/08 02:58:17;;;;;;;;;;;;;;;9.72;82.89;99418.28;5082690;28;19912;-62
2022/09/08 03:00:42;;;;;;;;;;;;;;;9.72;84.04;99421.75;5083958;28;19924;-61
2022/09/08 03:03:08;;;;;;;;;;;;;;;9.70;82.68;99431.25;5083894;28;19939;-60
2022/09/08 03:05:33;;;;;;;;;;;;;;;9.73;84.11;99428.59;5083683;28;19908;-60
2022/09/08 03:07:59;;;;;;;;;;;;;;;9.76;83.74;99427.66;5083705;28;20197;-60
2022/09/08 03:10:24;;;;;;;;;;;;;;;9.70;83.76;99427.81;5083554;28;19924;-60
2022/09/08 03:12:54;;;;;;;;;;;;;;;9.73;83.27;99436.34;5091973;28;20197;-60
2022/09/08 03:15:21;;;;;;;;;;;;;;;9.78;82.92;99439.69;5098634;28;19908;-60
2022/09/08 03:17:47;;;;;;;;;;;;;;;9.79;82.94;99435.34;5083613;28;19908;-60
2022/09/08 03:20:14;;;;;;;;;;;;;;;9.78;83.29;99437.09;5092792;28;19978;-61
2022/09/08 03:22:39;;;;;;;;;;;;;;;9.73;82.73;99443.25;5098530;28;19908;-61
2022/09/08 03:25:05;;;;;;;;;;;;;;;9.80;82.64;99440.50;5093360;28;20007;-60
2022/09/08 03:27:31;;;;;;;;;;;;;;;9.77;82.33;99447.47;5082309;28;19923;-61
2022/09/08 03:29:56;;;;;;;;;;;;;;;9.76;82.62;99438.88;5083648;28;19912;-60
2022/09/08 03:32:22;;;;;;;;;;;;;;;9.72;83.22;99445.00;5083621;28;19916;-60
2022/09/08 03:34:47;;;;;;;;;;;;;;;9.78;83.31;99452.63;5083368;28;19908;-60
2022/09/08 03:37:13;;;;;;;;;;;;;;;9.83;83.22;99445.63;5083416;28;19999;-61
2022/09/08 03:39:38;;;;;;;;;;;;;;;9.87;83.57;99453.31;5115999;28;19972;-61
2022/09/08 03:42:05;;;;;;;;;;;;;;;9.76;83.67;99451.81;5083117;28;20859;-61
2022/09/08 03:44:31;;;;;;;;;;;;;;;9.77;83.62;99461.25;5083469;28;19912;-61
2022/09/08 03:46:57;;;;;;;;;;;;;;;9.77;83.67;99463.00;5083139;28;19983;-61
2022/09/08 03:49:22;;;;;;;;;;;;;;;9.79;83.19;99458.63;5085672;28;19908;-61
2022/09/08 03:51:47;;;;;;;;;;;;;;;9.82;83.47;99472.38;5083301;28;20087;-60
2022/09/08 03:56:57;;;;;;;;;;;;;;;9.80;84.32;99470.69;5064391;28;19913;-60
2022/09/08 03:59:23;;;;;;;;;;;;;;;9.85;83.11;99474.88;5064352;28;19920;-60
2022/09/08 04:01:48;;;;;;;;;;;;;;;9.84;82.42;99483.50;5077318;28;19920;-60
2022/09/08 04:04:14;;;;;;;;;;;;;;;9.87;82.96;99481.75;5082329;28;19939;-61
2022/09/08 04:06:39;;;;;;;;;;;;;;;9.89;82.27;99491.19;5082460;28;19946;-60
2022/09/08 04:09:05;;;;;;;;;;;;;;;9.87;82.47;99492.09;5083223;28;19908;-59
2022/09/08 04:11:31;;;;;;;;;;;;;;;9.90;82.00;99485.13;5102721;28;19945;-60
2022/09/08 04:13:56;;;;;;;;;;;;;;;9.88;82.69;99488.66;5085775;28;19908;-61
2022/09/08 04:16:22;;;;;;;;;;;;;;;9.93;81.57;99491.97;5083041;28;19909;-61
2022/09/08 04:18:47;;;;;;;;;;;;;;;10.01;81.80;99490.06;5082997;28;19954;-60
2022/09/08 04:21:13;;;;;;;;;;;;;;;10.03;82.04;99493.44;5085426;28;19916;-61
2022/09/08 04:23:39;;;;;;;;;;;;;;;10.08;82.62;99490.78;5103362;28;20108;-61
2022/09/08 04:26:05;;;;;;;;;;;;;;;10.01;81.96;99490.06;5084965;28;19909;-61
2022/09/08 04:28:32;;;;;;;;;;;;;;;10.01;81.70;99493.50;5096294;28;19919;-63
2022/09/08 04:30:57;;;;;;;;;;;;;;;9.96;80.33;99491.88;5093983;28;19931;-60
2022/09/08 04:33:23;;;;;;;;;;;;;;;10.01;80.87;99487.47;5089423;28;20077;-59
2022/09/08 04:35:48;;;;;;;;;;;;;;;10.05;80.29;99491.69;5106679;28;19908;-59
2022/09/08 04:38:14;;;;;;;;;;;;;;;10.07;79.92;99489.06;5104168;28;19919;-59
2022/09/08 04:40:40;;;;;;;;;;;;;;;9.99;81.03;99494.41;5086386;28;20101;-60
2022/09/08 04:43:05;;;;;;;;;;;;;;;10.04;80.57;99490.00;5086237;28;19908;-59
2022/09/08 04:45:31;;;;;;;;;;;;;;;10.13;81.02;99492.38;5086210;28;20099;-60
2022/09/08 04:47:56;;;;;;;;;;;;;;;10.17;80.12;99498.31;5086047;28;19915;-60
2022/09/08 04:50:21;;;;;;;;;;;;;;;10.15;79.15;99497.53;5086286;28;19908;-61
2022/09/08 04:52:47;;;;;;;;;;;;;;;10.04;80.02;99497.75;5085881;28;19938;-61
2022/09/08 04:55:12;;;;;;;;;;;;;;;10.01;80.58;99498.66;5089016;28;19908;-60
2022/09/08 04:57:38;;;;;;;;;;;;;;;10.03;79.71;99506.38;5086228;28;20097;-60
2022/09/08 05:00:04;;;;;;;;;;;;;;;10.06;79.48;99505.47;5086480;28;19916;-60
2022/09/08 05:02:30;;;;;;;;;;;;;;;10.10;79.45;99504.53;5085918;28;20201;-60
2022/09/08 05:04:56;;;;;;;;;;;;;;;9.98;80.69;99513.41;5102666;28;19916;-60
2022/09/08 05:07:21;;;;;;;;;;;;;;;9.97;81.20;99509.13;5093043;28;19985;-59
2022/09/08 05:09:47;;;;;;;;;;;;;;;10.01;79.98;99521.94;5085816;28;20262;-60
2022/09/08 05:12:12;;;;;;;;;;;;;;;9.94;80.03;99516.94;5103509;28;19916;-59
2022/09/08 05:14:37;;;;;;;;;;;;;;;9.98;80.25;99521.19;5106002;28;19908;-59
2022/09/08 05:17:03;;;;;;;;;;;;;;;9.99;80.79;99522.84;5088082;28;20043;-61
2022/09/08 05:19:29;;;;;;;;;;;;;;;9.87;80.66;99518.81;5085561;28;20014;-61
2022/09/08 05:21:54;;;;;;;;;;;;;;;9.96;79.93;99528.09;5109367;28;19908;-58
2022/09/08 05:24:21;;;;;;;;;;;;;;;9.93;80.34;99523.00;5102677;28;19909;-61
2022/09/08 05:26:46;;;;;;;;;;;;;;;10.03;80.65;99521.91;5085385;28;20150;-58
2022/09/08 05:29:12;;;;;;;;;;;;;;;10.06;80.05;99524.47;5084312;28;19951;-58
2022/09/08 05:31:38;;;;;;;;;;;;;;;10.17;79.74;99537.97;5084921;28;19908;-62
2022/09/08 05:34:03;;;;;;;;;;;;;;;10.10;80.31;99523.47;5084996;28;19916;-61
2022/09/08 05:36:33;;;;;;;;;;;;;;;10.16;80.03;99533.72;5083839;28;19940;-61
2022/09/08 05:38:59;;;;;;;;;;;;;;;10.25;79.50;99539.56;5085268;28;19912;-60
2022/09/08 05:41:25;;;;;;;;;;;;;;;10.20;79.28;99537.06;5067211;28;20197;-61
2022/09/08 05:43:51;;;;;;;;;;;;;;;10.31;79.06;99539.44;5099936;28;19915;-61
2022/09/08 05:46:17;;;;;;;;;;;;;;;10.29;79.35;99533.41;5093909;28;19977;-61
2022/09/08 05:48:43;;;;;;;;;;;;;;;10.29;78.76;99539.47;5084838;28;19920;-62
2022/09/08 05:51:09;;;;;;;;;;;;;;;10.33;77.64;99540.22;5086317;28;19979;-61
2022/09/08 05:53:35;;;;;;;;;;;;;;;10.38;77.14;99543.59;5105382;28;19915;-61
2022/09/08 05:56:02;;;;;;;;;;;;;;;10.30;77.19;99551.53;5090819;28;19913;-61
2022/09/08 05:58:28;;;;;;;;;;;;;;;10.30;77.02;99548.94;5097338;28;19983;-61
2022/09/08 06:00:57;;;;;;;;;;;;;;;10.34;77.51;99549.75;5097616;28;20128;-59
2022/09/08 06:03:23;;;;;;;;;;;;;;;10.32;79.10;99547.16;5084737;28;19947;-60
2022/09/08 06:05:48;;;;;;;;;;;;;;;10.42;78.94;99550.41;5084676;28;19915;-60
2022/09/08 06:08:14;;;;;;;;;;;;;;;10.45;78.85;99552.09;5084370;28;19979;-64
2022/09/08 06:10:39;;;;;;;;;;;;;;;10.36;79.13;99548.81;5084416;28;19979;-62
2022/09/08 06:13:05;;;;;;;;;;;;;;;10.42;78.36;99552.13;5100102;28;19981;-61
2022/09/08 06:15:30;;;;;;;;;;;;;;;10.28;79.28;99553.28;5084322;28;20135;-60
2022/09/08 06:17:57;;;;;;;;;;;;;;;10.39;77.93;99555.69;5084615;28;19915;-60
2022/09/08 06:20:23;;;;;;;;;;;;;;;10.31;79.23;99554.97;5084325;28;19915;-60
2022/09/08 06:22:48;;;;;;;;;;;;;;;10.29;77.27;99557.59;5084466;28;20097;-60
2022/09/08 06:25:14;;;;;;;;;;;;;;;10.29;77.27;99556.72;5084337;28;20135;-60
2022/09/08 06:27:39;;;;;;;;;;;;;;;10.36;77.24;99563.47;5100112;28;19908;-60
2022/09/08 06:30:08;;;;;;;;;;;;;;;10.29;79.24;99562.75;5083882;28;19908;-61
2022/09/08 06:32:34;;;;;;;;;;;;;;;10.25;79.42;99570.63;5083894;28;19908;-61
2022/09/08 06:35:03;;;;;;;;;;;;;;;10.29;79.61;99574.84;5084140;28;20242;-60
2022/09/08 06:37:35;;;;;;;;;;;;;;;10.33;80.07;99574.75;5084339;28;19908;-62
2022/09/08 06:40:14;;;;;;;;;;;;;;;10.29;80.16;99577.41;5084399;28;19927;-60
2022/09/08 06:42:40;;;;;;;;;;;;;;;10.35;79.47;99578.19;5084061;28;19909;-60
2022/09/08 06:45:09;;;;;;;;;;;;;;;10.33;79.73;99577.34;5083853;28;19915;-60
2022/09/08 06:47:39;;;;;;;;;;;;;;;10.38;80.30;99587.63;5083995;28;20193;-60
2022/09/08 06:50:06;;;;;;;;;;;;;;;10.44;80.46;99590.06;5083827;28;19975;-59
2022/09/08 06:52:48;;;;;;;;;;;;;;;10.43;79.82;99595.28;5083880;28;19908;-59
2022/09/08 06:55:19;;;;;;;;;;;;;;;10.44;79.95;99602.16;5083141;28;19946;-60
2022/09/08 06:57:55;;;;;;;;;;;;;;;10.41;79.94;99603.06;5081159;28;19915;-61
2022/09/08 07:00:22;;;;;;;;;;;;;;;10.41;79.93;99603.06;5066493;28;19951;-59
2022/09/08 07:02:52;;;;;;;;;;;;;;;10.48;79.99;99606.38;5083833;28;19991;-60
2022/09/08 07:05:31;;;;;;;;;;;;;;;10.55;78.83;99605.38;5083673;28;19908;-60
2022/09/08 07:08:15;;;;;;;;;;;;;;;10.53;77.96;99617.47;5099294;28;19908;-60
2022/09/08 07:10:56;;;;;;;;;;;;;;;10.49;77.67;99610.69;5090179;28;19954;-60
2022/09/08 07:13:36;;;;;;;;;;;;;;;10.45;78.25;99612.47;5083578;28;20415;-60
2022/09/08 07:16:06;;;;;;;;;;;;;;;10.47;77.07;99618.47;5083738;28;19943;-60
2022/09/08 07:18:41;;;;;;;;;;;;;;;10.54;77.36;99621.78;5083515;28;19915;-60
2022/09/08 07:21:12;;;;;;;;;;;;;;;10.58;77.76;99620.00;5083652;28;19922;-60
2022/09/08 07:23:39;;;;;;;;;;;;;;;10.59;75.89;99619.94;5103805;28;19908;-60
2022/09/08 07:26:16;;;;;;;;;;;;;;;10.57;76.13;99623.47;5103838;28;19915;-60
2022/09/08 07:28:43;;;;;;;;;;;;;;;10.69;76.12;99618.84;5086546;28;19971;-60
2022/09/08 07:31:17;;;;;;;;;;;;;;;10.78;76.98;99622.97;5082326;28;19912;-60
2022/09/08 07:33:44;;;;;;;;;;;;;;;10.87;76.02;99632.25;5083450;28;19909;-60
2022/09/08 07:36:19;;;;;;;;;;;;;;;10.88;74.77;99627.03;5083466;28;19908;-60
2022/09/08 07:38:49;;;;;;;;;;;;;;;10.86;74.75;99626.22;5083571;28;19908;-60
2022/09/08 07:41:29;;;;;;;;;;;;;;;10.93;74.77;99626.06;5083146;28;20209;-60
2022/09/08 07:43:57;;;;;;;;;;;;;;;10.96;75.15;99623.41;5084712;28;19983;-60
2022/09/08 07:46:43;;;;;;;;;;;;;;;10.81;73.70;99627.22;5082876;28;20128;-61
2022/09/08 07:49:21;;;;;;;;;;;;;;;10.91;72.88;99623.53;5071181;28;19916;-61
2022/09/08 07:52:07;;;;;;;;;;;;;;;11.06;72.52;99624.91;5083103;28;19908;-60
2022/09/08 07:54:43;;;;;;;;;;;;;;;10.98;72.23;99629.41;5078848;28;19943;-61
2022/09/08 07:57:11;;;;;;;;;;;;;;;10.98;72.10;99635.44;5083533;28;20038;-60
2022/09/08 07:59:43;;;;;;;;;;;;;;;11.06;71.55;99627.50;5103840;28;20147;-61
2022/09/08 08:02:27;;;;;;;;;;;;;;;10.97;73.37;99635.47;5085834;28;19939;-61
2022/09/08 08:05:18;;;;;;;;;;;;;;;10.96;72.35;99639.81;5097936;28;20120;-60
2022/09/08 08:08:05;;;;;;;;;;;;;;;10.80;72.93;99646.22;5104827;28;19947;-60
2022/09/08 08:10:37;;;;;;;;;;;;;;;10.80;73.37;99647.09;5095548;28;19923;-60
2022/09/08 08:13:18;;;;;;;;;;;;;;;10.91;73.56;99649.44;5086875;28;19908;-60
2022/09/08 08:15:46;;;;;;;;;;;;;;;11.00;74.30;99649.22;5086812;28;19930;-61
2022/09/08 08:18:30;;;;;;;;;;;;;;;10.96;72.87;99655.38;5087356;28;20209;-61
2022/09/08 08:20:59;;;;;;;;;;;;;;;10.94;72.24;99653.69;5090602;28;19912;-60
2022/09/08 08:23:35;;;;;;;;;;;;;;;10.75;71.76;99651.53;5086322;28;19914;-60
2022/09/08 08:26:15;;;;;;;;;;;;;;;10.80;72.77;99661.78;5086827;28;19987;-60
2022/09/08 08:28:42;;;;;;;;;;;;;;;10.74;73.20;99662.78;5086488;28;19908;-60
2022/09/08 08:31:14;;;;;;;;;;;;;;;10.82;73.93;99663.44;5086268;28;20082;-61
2022/09/08 08:33:44;;;;;;;;;;;;;;;10.64;73.79;99666.47;5090515;28;19908;-61
2022/09/08 08:36:12;;;;;;;;;;;;;;;10.48;74.44;99671.97;5093154;28;20157;-60
2022/09/08 08:38:42;;;;;;;;;;;;;;;10.60;74.36;99675.16;5086479;28;19909;-60
2022/09/08 08:41:12;;;;;;;;;;;;;;;10.57;74.95;99680.44;5086404;28;19993;-60
2022/09/08 08:43:43;;;;;;;;;;;;;;;10.60;73.75;99664.81;5086302;28;19915;-61
2022/09/08 08:46:27;;;;;;;;;;;;;;;10.61;74.24;99669.13;5086243;28;19939;-61
2022/09/08 08:49:05;;;;;;;;;;;;;;;10.67;74.71;99661.19;5085871;28;19916;-61
2022/09/08 08:51:53;;;;;;;;;;;;;;;10.76;73.70;99665.31;5089072;28;19915;-60
2022/09/08 08:54:34;;;;;;;;;;;;;;;10.81;72.96;99663.50;5105199;28;19915;-61
2022/09/08 08:57:26;;;;;;;;;;;;;;;11.41;70.27;99659.44;5085525;28;19943;-60
2022/09/08 09:00:01;;;;;;;;;;;;;;;11.92;68.75;99669.34;5067632;28;19912;-61
2022/09/08 09:02:37;;;;;;;;;;;;;;;12.16;68.29;99671.34;5085905;28;19948;-60
2022/09/08 09:05:11;;;;;;;;;;;;;;;12.36;67.96;99666.44;5085115;28;20114;-60
2022/09/08 09:07:43;;;;;;;;;;;;;;;12.10;66.13;99662.00;5085350;28;19979;-60
2022/09/08 09:10:27;;;;;;;;;;;;;;;12.00;66.50;99666.59;5084895;28;19939;-60
2022/09/08 09:13:01;;;;;;;;;;;;;;;11.72;67.59;99675.06;5084030;28;19912;-60
2022/09/08 09:15:45;;;;;;;;;;;;;;;11.75;68.10;99679.34;5084057;28;19916;-60
2022/09/08 09:18:29;;;;;;;;;;;;;;;11.63;68.08;99682.25;5083525;28;20189;-60
2022/09/08 09:21:00;;;;;;;;;;;;;;;11.81;67.99;99681.75;5083842;28;19931;-60
2022/09/08 09:23:31;;;;;;;;;;;;;;;11.82;68.65;99688.66;5084382;28;19951;-60
2022/09/08 09:26:16;;;;;;;;;;;;;;;11.61;68.49;99686.63;5084418;28;19975;-61
2022/09/08 09:28:50;;;;;;;;;;;;;;;11.57;68.34;99693.63;5098076;28;19908;-59
2022/09/08 09:31:31;;;;;;;;;;;;;;;11.52;68.88;99698.94;5105701;28;20128;-61
2022/09/08 09:34:11;;;;;;;;;;;;;;;11.54;68.75;99697.16;5099595;28;19951;-60
2022/09/08 09:36:43;;;;;;;;;;;;;;;11.52;69.13;99706.72;5085447;28;19946;-60
2022/09/08 09:39:29;;;;;;;;;;;;;;;11.56;69.05;99707.50;5085485;28;19908;-61
2022/09/08 09:42:00;;;;;;;;;;;;;;;11.58;69.04;99709.16;5064564;28;19909;-60
2022/09/08 09:44:55;;;;;;;;;;;;;;;11.51;69.74;99712.78;5083481;28;19930;-60
2022/09/08 09:47:21;;;;;;;;;;;;;;;11.53;69.31;99712.78;5065418;28;20254;-60
2022/09/08 09:50:04;;;;;;;;;;;;;;;11.55;68.92;99719.59;5085015;28;19916;-60
2022/09/08 09:52:48;;;;;;;;;;;;;;;11.55;68.64;99709.22;5084911;28;20223;-60
2022/09/08 09:55:32;;;;;;;;;;;;;;;11.39;69.10;99728.66;5085353;28;19914;-59
2022/09/08 09:58:07;;;;;;;;;;;;;;;11.36;68.97;99729.59;5074159;28;19940;-60
2022/09/08 10:00:43;;;;;;;;;;;;;;;11.44;69.09;99723.34;5085441;28;19920;-60
2022/09/08 10:03:27;;;;;;;;;;;;;;;11.44;69.44;99729.38;5085702;28;19953;-59
2022/09/08 10:06:10;;;;;;;;;;;;;;;11.47;69.90;99731.94;5074070;28;19976;-60
2022/09/08 10:08:54;;;;;;;;;;;;;;;11.38;71.04;99742.50;5084617;28;19952;-59
2022/09/08 10:11:25;;;;;;;;;;;;;;;11.34;69.94;99738.28;5084539;28;20185;-60
2022/09/08 10:14:03;;;;;;;;;;;;;;;11.42;69.68;99743.31;5084421;28;20240;-60
2022/09/08 10:16:40;;;;;;;;;;;;;;;11.53;69.81;99741.31;5084255;28;19958;-61
2022/09/08 10:19:21;;;;;;;;;;;;;;;11.47;69.13;99734.53;5084256;28;19920;-60
2022/09/08 10:22:06;;;;;;;;;;;;;;;11.45;69.28;99738.88;5084421;28;19971;-60
2022/09/08 10:24:50;;;;;;;;;;;;;;;11.43;69.80;99743.25;5084682;28;19912;-60
2022/09/08 10:27:34;;;;;;;;;;;;;;;11.50;67.94;99750.00;5084437;28;19939;-60
2022/09/08 10:30:18;;;;;;;;;;;;;;;11.40;67.44;99749.38;5091821;28;19908;-61
2022/09/08 10:33:02;;;;;;;;;;;;;;;11.48;67.53;99756.94;5084469;28;19953;-61
2022/09/08 10:35:37;;;;;;;;;;;;;;;11.36;66.63;99762.44;5084365;28;19909;-61
2022/09/08 10:38:21;;;;;;;;;;;;;;;11.36;67.73;99759.84;5084524;28;19924;-60
2022/09/08 10:41:03;;;;;;;;;;;;;;;11.32;67.74;99763.41;5084490;28;19931;-60
2022/09/08 10:43:31;;;;;;;;;;;;;;;11.20;69.49;99770.56;5083968;28;19912;-59
2022/09/08 10:46:16;;;;;;;;;;;;;;;11.19;68.34;99779.22;5083994;28;19909;-60
2022/09/08 10:48:56;;;;;;;;;;;;;;;11.15;68.40;99780.19;5083924;28;19908;-60
2022/09/08 10:51:38;;;;;;;;;;;;;;;11.14;68.08;99778.47;5084002;28;19949;-59
2022/09/08 10:54:07;;;;;;;;;;;;;;;11.07;69.07;99776.91;5116814;28;19916;-60
2022/09/08 10:56:32;;;;;;;;;;;;;;;10.91;68.81;99780.72;5083749;28;20189;-61
2022/09/08 10:59:33;;;;;;;;;;;;;;;11.05;69.23;99782.13;5097827;28;19934;-60
2022/09/08 11:02:09;;;;;;;;;;;;;;;11.05;68.67;99782.13;5045897;28;19913;-61
2022/09/08 11:04:40;;;;;;;;;;;;;;;11.05;68.67;99784.72;5088920;28;19908;-61
2022/09/08 11:07:06;;;;;;;;;;;;;;;11.05;68.59;99792.50;5096746;28;19948;-62
2022/09/08 11:09:40;;;;;;;;;;;;;;;11.18;68.40;99779.28;5083522;28;19946;-60
2022/09/08 11:12:06;;;;;;;;;;;;;;;11.21;68.12;99781.78;5083395;28;19916;-60
2022/09/08 11:14:34;;;;;;;;;;;;;;;11.47;69.03;99776.03;5083541;28;20151;-60
2022/09/08 11:17:17;;;;;;;;;;;;;;;11.68;68.85;99773.78;5083553;28;19962;-61
2022/09/08 11:19:46;;;;;;;;;;;;;;;11.80;65.50;99775.22;5083705;28;19947;-60
2022/09/08 11:22:30;;;;;;;;;;;;;;;11.78;65.76;99775.25;5083539;28;20164;-61
2022/09/08 11:25:19;;;;;;;;;;;;;;;11.76;63.83;99779.66;5083268;28;19912;-61
2022/09/08 11:27:44;;;;;;;;;;;;;;;11.66;64.78;99783.34;5072991;28;20131;-61
2022/09/08 11:30:20;;;;;;;;;;;;;;;11.68;64.74;99781.56;5083335;28;19909;-60
2022/09/08 11:33:04;;;;;;;;;;;;;;;11.74;64.15;99784.00;5063229;28;20079;-60
2022/09/08 11:35:30;;;;;;;;;;;;;;;11.78;65.30;99785.63;5081480;28;19923;-61
2022/09/08 11:38:18;;;;;;;;;;;;;;;11.77;64.97;99791.69;5083127;28;19976;-60
2022/09/08 11:40:52;;;;;;;;;;;;;;;11.86;63.82;99793.25;5078952;28;19908;-61
2022/09/08 11:43:27;;;;;;;;;;;;;;;11.87;64.24;99793.19;5085840;28;20197;-60
2022/09/08 11:46:02;;;;;;;;;;;;;;;11.92;64.00;99790.47;5085883;28;20171;-61
2022/09/08 11:48:39;;;;;;;;;;;;;;;11.92;65.14;99793.06;5088277;28;19923;-61
2022/09/08 11:51:19;;;;;;;;;;;;;;;11.81;63.33;99798.53;5107593;28;19916;-61
2022/09/08 11:53:53;;;;;;;;;;;;;;;11.83;62.44;99796.75;5067262;28;19915;-59
2022/09/08 11:56:34;;;;;;;;;;;;;;;11.77;62.94;99801.25;5083816;28;19946;-61
2022/09/08 11:59:18;;;;;;;;;;;;;;;11.78;63.30;99800.34;5093407;28;19951;-61
2022/09/08 12:01:44;;;;;;;;;;;;;;;11.90;63.04;99807.84;5086793;28;20292;-60
2022/09/08 12:04:28;;;;;;;;;;;;;;;11.88;63.42;99807.03;5087055;28;20213;-60
2022/09/08 12:07:06;;;;;;;;;;;;;;;11.90;64.10;99807.84;5086699;28;19908;-61
2022/09/08 12:09:47;;;;;;;;;;;;;;;11.89;63.16;99803.53;5088529;28;19908;-62
2022/09/08 12:12:31;;;;;;;;;;;;;;;11.99;62.42;99805.03;5107385;28;20259;-60
2022/09/08 12:15:12;;;;;;;;;;;;;;;11.97;62.84;99808.56;5066875;28;19951;-62
2022/09/08 12:17:56;;;;;;;;;;;;;;;12.05;63.29;99811.81;5084622;28;19930;-60
2022/09/08 12:20:34;;;;;;;;;;;;;;;12.02;63.34;99814.50;5086446;28;19909;-61
2022/09/08 12:23:05;;;;;;;;;;;;;;;12.12;62.87;99810.78;5086618;28;20070;-61
2022/09/08 12:25:37;;;;;;;;;;;;;;;12.02;64.02;99814.50;5086673;28;19908;-60
2022/09/08 12:28:05;;;;;;;;;;;;;;;11.99;62.87;99814.59;5086595;28;19912;-58
2022/09/08 12:30:37;;;;;;;;;;;;;;;12.03;64.15;99808.44;5087879;28;19909;-59
2022/09/08 12:33:21;;;;;;;;;;;;;;;11.94;63.44;99819.88;5105903;28;19908;-59
2022/09/08 12:35:53;;;;;;;;;;;;;;;11.91;64.68;99815.59;5105692;28;19908;-60
2022/09/08 12:38:27;;;;;;;;;;;;;;;11.88;65.10;99825.19;5085248;28;19939;-59
2022/09/08 12:40:53;;;;;;;;;;;;;;;11.67;64.18;99821.34;5079506;28;19913;-59
2022/09/08 12:43:38;;;;;;;;;;;;;;;11.62;63.72;99823.22;5089921;28;19950;-60
2022/09/08 12:46:27;;;;;;;;;;;;;;;11.77;65.10;99827.19;5093716;28;20196;-60
2022/09/08 12:48:56;;;;;;;;;;;;;;;11.85;63.40;99820.06;5084855;28;19915;-59
2022/09/08 12:51:28;;;;;;;;;;;;;;;12.02;63.18;99832.66;5076558;28;19912;-59
2022/09/08 12:54:12;;;;;;;;;;;;;;;12.03;62.87;99824.00;5065889;28;19913;-61
2022/09/08 12:56:52;;;;;;;;;;;;;;;12.01;62.91;99831.78;5085277;28;19908;-60
2022/09/08 12:59:33;;;;;;;;;;;;;;;12.14;62.28;99837.56;5102524;28;19912;-60
2022/09/08 13:02:11;;;;;;;;;;;;;;;12.13;63.34;99828.06;5082279;28;19949;-61
2022/09/08 13:04:47;;;;;;;;;;;;;;;12.13;63.94;99840.16;5093523;28;19928;-60
2022/09/08 13:07:27;;;;;;;;;;;;;;;11.95;64.52;99849.28;5086117;28;19912;-59
2022/09/08 13:10:01;;;;;;;;;;;;;;;11.80;68.32;99866.03;5085988;28;20017;-60
2022/09/08 13:12:48;;;;;;;;;;;;;;;11.73;71.73;99863.59;5086169;28;20088;-60
2022/09/08 13:15:23;;;;;;;;;;;;;;;11.71;72.68;99877.47;5085732;28;19919;-61
2022/09/08 13:18:04;;;;;;;;;;;;;;;11.64;73.39;99875.91;5085991;28;19908;-60
2022/09/08 13:20:29;;;;;;;;;;;;;;;11.54;72.93;99877.84;5085751;28;19908;-60